Time;durP1;ratioP1;P1;durP2;ratioP2;P2;SDS_P1;SDS_P2;PMS_P1;PMS_P2;Temp;Humidity;BMP_temperature;BMP_pressure;BME280_temperature;BME280_humidity;BME280_pressure;Samples;Min_cycle;Max_cycle;Signal;HPM_P1;HPM_P2
2022/02/06 00:01:18;;;;;;;10.07;3.47;;;4.90;99.90;;;;;;5102957;27;20785;-81
2022/02/06 00:03:44;;;;;;;7.83;3.43;;;4.90;99.90;;;;;;5111594;27;20375;-81
2022/02/06 00:06:10;;;;;;;7.40;3.23;;;5.00;99.90;;;;;;5116022;27;20397;-82
2022/02/06 00:08:39;;;;;;;7.63;3.38;;;5.10;99.90;;;;;;5112355;27;20751;-82
2022/02/06 00:11:05;;;;;;;9.10;3.25;;;5.20;99.90;;;;;;5110863;28;20390;-80
2022/02/06 00:13:31;;;;;;;5.38;3.08;;;5.20;99.90;;;;;;5110600;27;20464;-81
2022/02/06 00:15:56;;;;;;;5.13;3.00;;;5.30;99.90;;;;;;5108735;28;20424;-83
2022/02/06 00:18:22;;;;;;;6.93;2.90;;;5.20;99.90;;;;;;5129993;27;20369;-81
2022/02/06 00:20:53;;;;;;;6.32;2.80;;;5.20;99.90;;;;;;5119040;27;20882;-82
2022/02/06 00:23:21;;;;;;;5.68;2.72;;;5.30;99.90;;;;;;5093817;28;20390;-81
2022/02/06 00:26:02;;;;;;;7.80;3.10;;;5.40;99.90;;;;;;5109057;28;20414;-81
2022/02/06 00:31:18;;;;;;;5.82;2.70;;;5.50;99.90;;;;;;5109888;27;20375;-82
2022/02/06 00:39:12;;;;;;;5.90;2.87;;;5.50;99.90;;;;;;5130658;27;20408;-81
2022/02/06 00:41:38;;;;;;;5.57;2.80;;;5.60;99.90;;;;;;5117909;27;20891;-84
2022/02/06 00:44:06;;;;;;;5.83;2.73;;;5.60;99.90;;;;;;5115469;27;20465;-81
2022/02/06 00:46:37;;;;;;;6.45;2.50;;;5.70;99.90;;;;;;5117237;27;21335;-81
2022/02/06 00:49:13;;;;;;;5.75;2.92;;;5.70;99.90;;;;;;5110528;28;20465;-82
2022/02/06 00:54:35;;;;;;;5.43;2.50;;;5.70;99.90;;;;;;5099566;28;20387;-81
2022/02/06 00:57:00;;;;;;;6.67;2.60;;;5.80;99.90;;;;;;5117264;28;20382;-81
2022/02/06 00:59:26;;;;;;;5.47;2.57;;;5.80;99.90;;;;;;5109128;28;20397;-81
2022/02/06 01:01:52;;;;;;;5.90;2.70;;;5.80;99.90;;;;;;5108954;28;20382;-82
2022/02/06 01:04:18;;;;;;;5.60;2.80;;;5.80;99.90;;;;;;5113204;28;20386;-81
2022/02/06 01:06:43;;;;;;;4.95;2.42;;;5.80;99.90;;;;;;5113427;28;20371;-83
2022/02/06 01:09:09;;;;;;;6.38;2.60;;;5.70;99.90;;;;;;5113345;28;20477;-81
2022/02/06 01:11:37;;;;;;;4.07;2.28;;;5.60;99.90;;;;;;5098248;28;20879;-81
2022/02/06 01:16:53;;;;;;;6.70;2.57;;;5.70;99.90;;;;;;5113623;28;20374;-81
2022/02/06 01:19:20;;;;;;;6.57;2.85;;;5.80;99.90;;;;;;5096390;28;20439;-82
2022/02/06 01:21:52;;;;;;;6.78;2.78;;;5.90;99.90;;;;;;5094960;28;20422;-83
2022/02/06 01:24:23;;;;;;;5.55;2.88;;;5.90;99.90;;;;;;5113592;28;20614;-81
2022/02/06 01:26:54;;;;;;;5.10;2.55;;;5.80;99.90;;;;;;5110871;28;20436;-81
2022/02/06 01:31:58;;;;;;;3.88;2.42;;;5.80;99.90;;;;;;5112209;28;20382;-82
2022/02/06 01:34:33;;;;;;;6.10;2.58;;;5.90;99.90;;;;;;5095316;28;20449;-80
2022/02/06 01:37:16;;;;;;;4.75;2.65;;;5.90;99.90;;;;;;5113974;28;20371;-83
2022/02/06 01:42:16;;;;;;;4.50;2.58;;;5.90;99.90;;;;;;5113097;28;20382;-80
2022/02/06 02:01:13;;;;;;;4.05;2.13;;;5.70;99.90;;;;;;5108831;28;20912;-81
2022/02/06 02:03:53;;;;;;;5.90;2.40;;;5.70;99.90;;;;;;5091309;28;20478;-81
2022/02/06 02:09:28;;;;;;;5.78;2.70;;;5.70;99.90;;;;;;5109328;28;20519;-80
2022/02/06 02:12:43;;;;;;;5.30;2.30;;;5.70;99.90;;;;;;5110403;28;20558;-81
2022/02/06 02:15:21;;;;;;;5.93;2.40;;;5.70;99.90;;;;;;5106523;28;20379;-80
2022/02/06 02:30:57;;;;;;;4.77;2.80;;;5.50;99.90;;;;;;5108644;28;20526;-81
2022/02/06 02:44:56;;;;;;;4.53;2.20;;;5.50;99.90;;;;;;5103903;28;20730;-81
2022/02/06 02:47:19;;;;;;;6.30;2.38;;;5.50;99.90;;;;;;5092522;28;20384;-80
2022/02/06 02:49:55;;;;;;;5.10;2.28;;;5.50;99.90;;;;;;5087558;28;20620;-81
2022/02/06 02:52:42;;;;;;;5.57;2.42;;;5.50;99.90;;;;;;5094905;28;20375;-81
2022/02/06 02:58:28;;;;;;;6.55;2.45;;;5.40;99.90;;;;;;5093099;28;20384;-82
2022/02/06 03:00:51;;;;;;;5.00;2.70;;;5.50;99.90;;;;;;5105040;28;20473;-82
2022/02/06 03:03:21;;;;;;;4.70;2.30;;;5.20;99.90;;;;;;5093515;28;20416;-82
2022/02/06 03:05:50;;;;;;;5.38;2.40;;;5.20;99.90;;;;;;5110786;28;20441;-80
2022/02/06 03:08:16;;;;;;;4.40;2.65;;;5.20;99.90;;;;;;5094890;28;20404;-80
2022/02/06 03:10:43;;;;;;;4.90;2.20;;;5.20;99.90;;;;;;5114647;28;21223;-80
2022/02/06 03:13:11;;;;;;;7.47;2.78;;;5.20;99.90;;;;;;5116149;28;20512;-82
2022/02/06 03:18:05;;;;;;;5.18;2.50;;;5.10;99.90;;;;;;5096332;28;20376;-81
2022/02/06 03:20:33;;;;;;;5.15;2.38;;;5.00;99.90;;;;;;5096973;28;20372;-81
2022/02/06 03:23:03;;;;;;;5.65;2.53;;;5.00;99.90;;;;;;5103990;28;20378;-81
2022/02/06 03:25:29;;;;;;;6.47;2.57;;;5.00;99.90;;;;;;5096333;28;20757;-81
2022/02/06 03:27:54;;;;;;;7.07;2.53;;;5.10;99.90;;;;;;5106412;28;20921;-83
2022/02/06 03:30:22;;;;;;;5.37;2.53;;;5.10;99.90;;;;;;5075285;28;20376;-82
2022/02/06 03:32:50;;;;;;;4.72;2.50;;;5.20;99.90;;;;;;5094557;28;20441;-81
2022/02/06 03:35:16;;;;;;;6.20;2.30;;;5.20;99.90;;;;;;5107019;28;20955;-81
2022/02/06 03:37:41;;;;;;;5.97;2.53;;;5.20;99.90;;;;;;5114946;28;20466;-81
2022/02/06 03:40:18;;;;;;;6.82;2.72;;;5.10;99.90;;;;;;5112211;28;20386;-81
2022/02/06 03:42:55;;;;;;;6.68;2.80;;;5.10;99.90;;;;;;5096784;28;20430;-81
2022/02/06 03:45:21;;;;;;;5.70;2.92;;;5.00;99.90;;;;;;5074930;28;20901;-82
2022/02/06 03:47:54;;;;;;;8.38;2.75;;;4.90;99.90;;;;;;5094880;28;20402;-81
2022/02/06 03:50:20;;;;;;;8.10;3.40;;;4.90;99.90;;;;;;5080242;28;20473;-81
2022/02/06 03:52:51;;;;;;;7.00;3.50;;;4.90;99.90;;;;;;5115206;28;20931;-80
2022/02/06 03:55:20;;;;;;;6.28;2.80;;;4.90;99.90;;;;;;5095743;28;20477;-81
2022/02/06 03:57:47;;;;;;;6.82;3.00;;;4.90;99.90;;;;;;5105975;28;20388;-80
2022/02/06 04:00:15;;;;;;;7.93;3.15;;;4.90;99.90;;;;;;5110509;28;20463;-80
2022/02/06 04:02:42;;;;;;;9.90;3.15;;;4.90;99.90;;;;;;5103480;28;20983;-80
2022/02/06 04:05:08;;;;;;;6.20;3.00;;;4.80;99.90;;;;;;5103231;28;20428;-80
2022/02/06 04:07:33;;;;;;;7.15;3.28;;;4.80;99.90;;;;;;5093527;28;20383;-81
2022/02/06 04:09:59;;;;;;;7.20;3.00;;;4.80;99.90;;;;;;5075144;28;20809;-80
2022/02/06 04:12:26;;;;;;;9.13;3.50;;;4.80;99.90;;;;;;5093878;28;20385;-80
2022/02/06 04:15:02;;;;;;;7.80;3.67;;;4.90;99.90;;;;;;5093035;28;20396;-80
2022/02/06 04:17:30;;;;;;;7.35;2.92;;;4.80;99.90;;;;;;5078010;28;20390;-81
2022/02/06 04:19:56;;;;;;;10.30;3.30;;;4.90;99.90;;;;;;5093631;28;20397;-81
2022/02/06 04:22:23;;;;;;;9.47;3.83;;;4.90;99.90;;;;;;5106539;28;21016;-81
2022/02/06 04:24:49;;;;;;;6.53;3.53;;;4.90;99.90;;;;;;5112193;28;20434;-81
2022/02/06 04:27:15;;;;;;;8.50;3.20;;;4.90;99.90;;;;;;5112766;28;20750;-81
2022/02/06 04:29:41;;;;;;;9.27;3.35;;;4.80;99.90;;;;;;5075323;28;20487;-81
2022/02/06 04:32:08;;;;;;;6.15;3.17;;;5.00;99.90;;;;;;5096231;28;20516;-81
2022/02/06 04:34:35;;;;;;;8.68;3.20;;;4.90;99.90;;;;;;5103013;28;20380;-81
2022/02/06 04:42:16;;;;;;;8.75;3.30;;;4.90;99.90;;;;;;5091442;28;20382;-81
2022/02/06 05:14:51;;;;;;;9.93;3.70;;;5.00;99.90;;;;;;5111594;28;20409;-81
2022/02/06 05:20:50;;;;;;;7.63;3.47;;;5.00;99.90;;;;;;5047827;28;20384;-81
2022/02/06 05:28:35;;;;;;;8.75;3.60;;;5.20;99.90;;;;;;5103987;28;20418;-81
2022/02/06 05:31:56;;;;;;;6.38;2.97;;;5.10;99.90;;;;;;5072830;28;20937;-80
2022/02/06 05:33:49;;;;;;;9.57;3.53;;;5.10;99.90;;;;;;5082437;28;20808;-81
2022/02/06 05:36:15;;;;;;;7.27;3.67;;;5.20;99.90;;;;;;5096764;28;20396;-82
2022/02/06 05:38:41;;;;;;;7.13;3.47;;;5.10;99.90;;;;;;5104010;28;20392;-81
2022/02/06 05:41:07;;;;;;;9.20;3.33;;;5.20;99.90;;;;;;5103098;28;20449;-80
2022/02/06 05:43:33;;;;;;;5.23;3.30;;;5.20;99.90;;;;;;5107011;28;20479;-82
2022/02/06 05:45:59;;;;;;;9.35;3.45;;;5.20;99.90;;;;;;5090526;28;20485;-81
2022/02/06 05:48:24;;;;;;;6.10;3.40;;;5.20;99.90;;;;;;5093538;28;20385;-81
2022/02/06 05:50:50;;;;;;;8.37;3.60;;;5.20;99.90;;;;;;5096348;28;20392;-82
2022/02/06 05:53:17;;;;;;;7.72;3.80;;;5.10;99.90;;;;;;5108762;28;20379;-83
2022/02/06 05:55:44;;;;;;;6.85;3.50;;;5.20;99.90;;;;;;5079046;28;20464;-81
2022/02/06 05:58:09;;;;;;;6.50;3.00;;;5.10;99.90;;;;;;5097870;28;20430;-80
2022/02/06 06:00:41;;;;;;;4.63;3.20;;;5.20;99.90;;;;;;5107514;28;20846;-82
2022/02/06 06:03:08;;;;;;;7.93;3.20;;;5.10;99.90;;;;;;5094782;28;20563;-81
2022/02/06 06:05:34;;;;;;;7.85;3.50;;;5.10;99.90;;;;;;5105572;28;20395;-80
2022/02/06 06:08:02;;;;;;;6.40;3.20;;;5.10;99.90;;;;;;5099783;28;20369;-81
2022/02/06 06:10:27;;;;;;;6.72;3.38;;;5.20;99.90;;;;;;5095363;28;20869;-81
2022/02/06 06:12:53;;;;;;;5.88;3.33;;;5.20;99.90;;;;;;5114627;28;20365;-81
2022/02/06 06:15:19;;;;;;;6.40;3.23;;;5.20;99.90;;;;;;5114611;28;20391;-80
2022/02/06 06:17:45;;;;;;;8.33;3.33;;;5.20;99.90;;;;;;5113472;28;20367;-80
2022/02/06 06:20:15;;;;;;;6.07;3.40;;;5.20;99.90;;;;;;5112899;28;20371;-81
2022/02/06 06:22:41;;;;;;;9.40;3.83;;;5.20;99.90;;;;;;5111083;28;20382;-80
2022/02/06 06:25:08;;;;;;;6.35;3.30;;;5.20;99.90;;;;;;5092475;28;20397;-82
2022/02/06 06:27:34;;;;;;;6.77;3.60;;;5.20;99.90;;;;;;5092471;28;20455;-81
2022/02/06 06:30:00;;;;;;;7.05;3.90;;;5.20;99.90;;;;;;5092147;28;20388;-80
2022/02/06 06:32:26;;;;;;;7.22;3.80;;;5.20;99.90;;;;;;5092946;28;20368;-80
2022/02/06 06:34:53;;;;;;;6.15;3.50;;;5.20;99.90;;;;;;5093076;28;20372;-81
2022/02/06 06:37:19;;;;;;;5.70;3.40;;;5.10;99.90;;;;;;5115279;27;20375;-81
2022/02/06 06:39:47;;;;;;;7.20;4.30;;;5.20;99.90;;;;;;5114111;28;20483;-80
2022/02/06 06:42:14;;;;;;;7.82;3.22;;;5.10;99.90;;;;;;5112768;28;20372;-82
2022/02/06 06:44:41;;;;;;;5.90;3.55;;;5.20;99.90;;;;;;5113577;27;20408;-81
2022/02/06 06:47:07;;;;;;;5.63;3.45;;;5.30;99.90;;;;;;5119653;27;20373;-80
2022/02/06 06:49:34;;;;;;;7.22;3.58;;;5.20;99.90;;;;;;5133169;27;20370;-81
2022/02/06 06:52:00;;;;;;;6.57;3.40;;;5.20;99.90;;;;;;5114602;27;20401;-81
2022/02/06 06:54:34;;;;;;;7.10;3.53;;;5.20;99.90;;;;;;5133244;27;20452;-80
2022/02/06 06:57:09;;;;;;;6.50;3.43;;;5.30;99.90;;;;;;5132746;27;20385;-82
2022/02/06 07:02:19;;;;;;;6.03;3.50;;;5.20;99.90;;;;;;5112466;28;20391;-80
2022/02/06 07:04:47;;;;;;;6.90;4.00;;;5.30;99.90;;;;;;5097698;27;20420;-81
2022/02/06 07:07:13;;;;;;;7.45;3.95;;;5.20;99.90;;;;;;5114715;27;20761;-80
2022/02/06 07:09:38;;;;;;;5.88;3.55;;;5.20;99.90;;;;;;5133872;27;20491;-81
2022/02/06 07:12:07;;;;;;;4.90;3.30;;;5.30;99.90;;;;;;5114318;27;20458;-81
2022/02/06 07:14:33;;;;;;;4.93;3.00;;;5.30;99.90;;;;;;5113304;28;20913;-81
2022/02/06 07:16:58;;;;;;;6.20;2.70;;;5.30;99.90;;;;;;5095540;28;20425;-81
2022/02/06 07:19:24;;;;;;;5.20;3.00;;;5.40;99.90;;;;;;5113645;28;21013;-81
2022/02/06 07:21:50;;;;;;;5.13;3.00;;;5.40;99.90;;;;;;5095290;28;20817;-82
2022/02/06 07:24:17;;;;;;;4.15;3.00;;;5.40;99.90;;;;;;5115144;27;20410;-80
2022/02/06 07:26:45;;;;;;;6.93;3.53;;;5.40;99.90;;;;;;5134095;27;20445;-81
2022/02/06 07:29:15;;;;;;;4.63;2.78;;;5.40;99.90;;;;;;5116695;27;20789;-81
2022/02/06 07:31:42;;;;;;;5.10;3.03;;;5.50;99.90;;;;;;5115269;27;20395;-81
2022/02/06 07:34:08;;;;;;;4.70;2.92;;;5.60;99.90;;;;;;5115582;27;20934;-81
2022/02/06 07:36:34;;;;;;;3.67;2.75;;;5.60;99.90;;;;;;5116672;27;20377;-81
2022/02/06 07:38:59;;;;;;;6.13;2.97;;;5.50;99.90;;;;;;5133344;27;20923;-80
2022/02/06 07:41:25;;;;;;;4.97;2.80;;;5.50;99.90;;;;;;5099890;28;20385;-80
2022/02/06 07:43:51;;;;;;;5.27;2.57;;;5.50;99.90;;;;;;5093225;28;20380;-82
2022/02/06 07:46:19;;;;;;;4.20;2.80;;;5.70;99.90;;;;;;5091990;28;20415;-81
2022/02/06 07:48:45;;;;;;;3.88;2.45;;;5.70;99.90;;;;;;5074550;28;20461;-82
2022/02/06 07:51:10;;;;;;;5.80;2.67;;;5.70;99.90;;;;;;5097320;28;20880;-81
2022/02/06 07:53:36;;;;;;;4.57;2.40;;;5.70;99.90;;;;;;5112203;28;20406;-81
2022/02/06 07:56:02;;;;;;;5.25;2.50;;;5.70;99.90;;;;;;5111879;28;20374;-80
2022/02/06 07:58:28;;;;;;;6.03;2.10;;;5.70;99.90;;;;;;5112239;28;20386;-81
2022/02/06 08:00:53;;;;;;;3.92;2.15;;;5.80;99.90;;;;;;5091580;28;20407;-80
2022/02/06 08:03:19;;;;;;;5.67;2.80;;;6.00;99.90;;;;;;5094126;28;20768;-80
2022/02/06 08:05:45;;;;;;;3.27;1.90;;;5.80;99.90;;;;;;5093065;28;20403;-81
2022/02/06 08:08:15;;;;;;;4.50;2.10;;;5.80;99.90;;;;;;5092971;28;20429;-81
2022/02/06 08:10:41;;;;;;;3.75;2.08;;;5.80;99.90;;;;;;5095881;28;20802;-80
2022/02/06 08:13:20;;;;;;;3.92;1.80;;;5.90;99.90;;;;;;5110710;28;20879;-82
2022/02/06 08:15:45;;;;;;;3.40;1.63;;;6.10;99.90;;;;;;5079925;28;20396;-82
2022/02/06 08:18:11;;;;;;;2.97;1.63;;;6.10;99.90;;;;;;5099927;28;20378;-80
2022/02/06 08:20:38;;;;;;;4.53;1.80;;;6.10;99.90;;;;;;5104608;28;20390;-81
2022/02/06 08:23:04;;;;;;;2.28;1.40;;;6.20;99.90;;;;;;5106279;28;20900;-81
2022/02/06 08:25:32;;;;;;;3.85;1.45;;;6.30;99.90;;;;;;5071387;28;20396;-80
2022/02/06 08:27:57;;;;;;;3.05;1.63;;;6.30;99.90;;;;;;5085639;28;20744;-82
2022/02/06 08:30:23;;;;;;;3.40;1.70;;;6.30;99.90;;;;;;5100054;28;20384;-83
2022/02/06 08:32:53;;;;;;;3.10;1.20;;;6.40;99.90;;;;;;5090701;28;20376;-84
2022/02/06 08:35:19;;;;;;;2.95;1.50;;;6.40;99.90;;;;;;5073039;28;20398;-82
2022/02/06 08:37:45;;;;;;;3.10;1.37;;;6.50;99.90;;;;;;5106302;28;20384;-82
2022/02/06 08:40:16;;;;;;;2.70;1.40;;;6.50;99.90;;;;;;5090579;28;20392;-83
2022/02/06 08:42:43;;;;;;;1.77;1.30;;;6.60;99.90;;;;;;5091458;28;20386;-81
2022/02/06 08:45:12;;;;;;;2.22;1.42;;;6.70;99.90;;;;;;5091731;28;21281;-82
2022/02/06 08:47:39;;;;;;;2.88;1.45;;;6.70;99.90;;;;;;5090786;28;20388;-83
2022/02/06 08:50:06;;;;;;;1.85;1.30;;;6.70;99.90;;;;;;5092932;28;20408;-83
2022/02/06 08:52:32;;;;;;;1.65;1.10;;;6.70;99.90;;;;;;5092299;28;20397;-83
2022/02/06 08:54:58;;;;;;;2.05;1.40;;;6.70;99.90;;;;;;5093844;28;20392;-81
2022/02/06 08:57:25;;;;;;;3.55;1.50;;;6.70;99.90;;;;;;5097527;28;20389;-83
2022/02/06 08:59:53;;;;;;;1.52;1.30;;;6.70;99.90;;;;;;5080266;28;20471;-82
2022/02/06 09:02:19;;;;;;;3.00;1.65;;;6.60;99.90;;;;;;5097989;28;20381;-83
2022/02/06 09:04:45;;;;;;;1.90;1.30;;;6.60;99.90;;;;;;5100203;28;20396;-83
2022/02/06 09:07:11;;;;;;;1.20;1.00;;;6.60;99.90;;;;;;5099448;28;20885;-83
2022/02/06 09:09:42;;;;;;;2.25;1.23;;;6.60;99.90;;;;;;5133546;28;20361;-82
2022/02/06 09:12:10;;;;;;;2.90;1.10;;;6.60;99.90;;;;;;5092434;28;20479;-84
2022/02/06 09:14:36;;;;;;;3.03;1.45;;;6.70;99.90;;;;;;5074341;28;20395;-83
2022/02/06 09:17:02;;;;;;;1.95;1.20;;;6.70;99.90;;;;;;5110439;28;20395;-82
2022/02/06 09:19:28;;;;;;;1.90;1.25;;;6.80;99.90;;;;;;5095928;28;20386;-83
2022/02/06 09:21:54;;;;;;;1.95;1.00;;;6.80;99.90;;;;;;5112336;28;20383;-83
2022/02/06 09:24:21;;;;;;;2.92;1.20;;;6.80;99.90;;;;;;5113738;28;20378;-81
2022/02/06 09:26:48;;;;;;;1.55;1.00;;;6.80;99.90;;;;;;5114922;28;20439;-82
2022/02/06 09:29:15;;;;;;;1.23;1.10;;;6.80;99.90;;;;;;5096772;28;20382;-80
2022/02/06 09:31:42;;;;;;;1.63;1.07;;;6.70;99.90;;;;;;5096036;28;20390;-82
2022/02/06 09:36:34;;;;;;;1.50;1.07;;;6.70;99.90;;;;;;5094971;28;20377;-81
2022/02/06 09:39:00;;;;;;;2.45;1.50;;;6.60;99.90;;;;;;5109801;28;20755;-81
2022/02/06 09:41:25;;;;;;;1.90;1.20;;;6.80;99.90;;;;;;5094673;28;20387;-81
2022/02/06 09:43:54;;;;;;;3.67;1.52;;;6.80;99.90;;;;;;5100980;28;20387;-81
2022/02/06 09:46:21;;;;;;;2.53;1.40;;;6.80;99.90;;;;;;5109952;28;20459;-81
2022/02/06 09:48:47;;;;;;;1.75;1.25;;;6.80;99.90;;;;;;5094933;28;20468;-81
2022/02/06 09:51:13;;;;;;;3.17;1.30;;;6.80;99.90;;;;;;5110430;28;20394;-81
2022/02/06 09:53:39;;;;;;;2.55;1.27;;;6.90;99.90;;;;;;5115788;28;20379;-81
2022/02/06 09:56:10;;;;;;;1.48;1.05;;;6.90;99.90;;;;;;5094960;28;20474;-81
2022/02/06 09:58:56;;;;;;;2.80;1.30;;;6.90;99.90;;;;;;5100751;28;20881;-82
2022/02/06 10:01:24;;;;;;;2.70;1.10;;;6.90;99.90;;;;;;5095049;28;20441;-81
2022/02/06 10:03:55;;;;;;;2.45;1.25;;;7.00;99.90;;;;;;5093533;28;20422;-83
2022/02/06 10:06:24;;;;;;;1.90;1.15;;;7.20;99.90;;;;;;5075127;28;20399;-81
2022/02/06 10:08:58;;;;;;;3.47;1.40;;;7.40;99.90;;;;;;5093572;28;20379;-81
2022/02/06 10:11:27;;;;;;;2.75;1.42;;;7.40;99.90;;;;;;5075132;28;20391;-81
2022/02/06 10:13:53;;;;;;;3.08;1.38;;;7.40;99.90;;;;;;5106421;28;20456;-81
2022/02/06 10:16:19;;;;;;;2.97;1.57;;;7.60;99.90;;;;;;5107591;28;20403;-81
2022/02/06 10:18:45;;;;;;;2.70;1.40;;;7.60;99.90;;;;;;5095687;28;20391;-81
2022/02/06 10:21:19;;;;;;;2.30;1.35;;;7.60;99.90;;;;;;5114798;28;20382;-80
2022/02/06 10:23:58;;;;;;;1.42;1.27;;;7.50;99.90;;;;;;5096557;28;20895;-81
2022/02/06 10:26:35;;;;;;;3.35;1.63;;;7.60;99.90;;;;;;5097241;28;20842;-82
2022/02/06 10:31:46;;;;;;;2.55;1.30;;;7.70;99.90;;;;;;5107426;28;20380;-80
2022/02/06 10:34:34;;;;;;;3.13;1.35;;;7.90;99.90;;;;;;5105232;27;20375;-82
2022/02/06 10:37:23;;;;;;;2.33;1.20;;;7.90;99.90;;;;;;5102418;28;20371;-80
2022/02/06 10:40:05;;;;;;;2.13;1.10;;;7.80;99.90;;;;;;5118793;27;20419;-81
2022/02/06 10:42:36;;;;;;;1.33;1.03;;;7.80;99.90;;;;;;5135781;27;20461;-81
2022/02/06 10:45:20;;;;;;;2.10;1.20;;;7.90;99.90;;;;;;5116393;27;20396;-80
2022/02/06 10:47:48;;;;;;;2.28;1.50;;;7.90;99.90;;;;;;5133768;27;20385;-81
2022/02/06 10:50:17;;;;;;;1.80;1.20;;;8.00;99.90;;;;;;5134847;27;20423;-81
2022/02/06 10:52:43;;;;;;;1.90;1.25;;;8.10;99.90;;;;;;5105145;28;20367;-79
2022/02/06 10:55:09;;;;;;;1.80;1.10;;;8.10;99.90;;;;;;5112354;28;20386;-80
2022/02/06 10:57:37;;;;;;;2.10;1.25;;;8.10;99.90;;;;;;5113344;28;20374;-79
2022/02/06 11:00:07;;;;;;;2.80;1.23;;;8.10;99.90;;;;;;5113012;28;20374;-81
2022/02/06 11:02:48;;;;;;;2.40;1.30;;;8.30;99.90;;;;;;5112024;28;20399;-80
2022/02/06 11:05:18;;;;;;;2.33;1.23;;;8.30;99.90;;;;;;5113426;28;20463;-80
2022/02/06 11:08:01;;;;;;;1.77;1.35;;;8.30;99.90;;;;;;5113000;28;20447;-81
2022/02/06 11:10:32;;;;;;;1.25;1.15;;;8.20;99.90;;;;;;5112479;28;20839;-82
2022/02/06 11:13:02;;;;;;;1.80;1.20;;;8.20;99.90;;;;;;5094656;28;20390;-82
2022/02/06 11:15:36;;;;;;;2.20;1.30;;;8.20;99.90;;;;;;5113933;28;20375;-80
2022/02/06 11:18:05;;;;;;;2.13;1.60;;;8.20;99.90;;;;;;5113543;28;20387;-82
2022/02/06 11:20:31;;;;;;;3.00;1.30;;;8.20;99.90;;;;;;5094774;28;20880;-81
2022/02/06 11:23:02;;;;;;;2.63;1.90;;;8.20;99.90;;;;;;5112850;28;20370;-81
2022/02/06 11:25:29;;;;;;;1.95;1.30;;;8.20;99.90;;;;;;5096235;28;20403;-81
2022/02/06 11:27:56;;;;;;;2.28;1.30;;;8.20;99.90;;;;;;5115529;28;20413;-80
2022/02/06 11:30:22;;;;;;;1.67;1.42;;;8.30;99.90;;;;;;5095225;28;20434;-82
2022/02/06 11:32:48;;;;;;;2.22;1.45;;;8.30;99.90;;;;;;5093092;28;20802;-80
2022/02/06 11:35:19;;;;;;;2.30;1.30;;;8.30;99.90;;;;;;5110822;28;20367;-81
2022/02/06 11:43:53;;;;;;;1.80;1.00;;;8.50;99.90;;;;;;5111505;28;20864;-79
2022/02/06 11:46:21;;;;;;;2.50;2.05;;;8.50;99.90;;;;;;5093836;28;20472;-81
2022/02/06 11:48:48;;;;;;;2.45;1.33;;;8.50;99.90;;;;;;5092488;28;20395;-80
2022/02/06 11:51:19;;;;;;;1.15;1.05;;;8.50;99.90;;;;;;5102311;28;20372;-81
2022/02/06 11:53:46;;;;;;;2.00;1.05;;;8.60;99.90;;;;;;5110789;27;20375;-81
2022/02/06 11:56:22;;;;;;;2.45;1.40;;;8.50;99.90;;;;;;5115648;27;20409;-82
2022/02/06 11:58:52;;;;;;;1.30;0.90;;;8.60;99.90;;;;;;5110763;27;20866;-81
2022/02/06 12:01:17;;;;;;;1.80;1.10;;;8.50;99.90;;;;;;5107580;28;20379;-80
2022/02/06 12:04:00;;;;;;;1.43;1.33;;;8.50;99.90;;;;;;5110905;28;20436;-82
2022/02/06 12:06:37;;;;;;;2.65;1.35;;;8.50;99.90;;;;;;5112065;28;20440;-81
2022/02/06 12:09:03;;;;;;;1.65;1.48;;;8.40;99.90;;;;;;5110979;28;20382;-82
2022/02/06 12:11:30;;;;;;;1.58;1.33;;;8.30;99.90;;;;;;5092788;28;20449;-80
2022/02/06 12:14:09;;;;;;;1.73;1.40;;;8.30;99.90;;;;;;5112203;28;20383;-82
2022/02/06 12:16:47;;;;;;;3.20;1.75;;;8.20;99.90;;;;;;5111815;28;20359;-81
2022/02/06 12:19:31;;;;;;;4.82;4.13;;;8.20;99.90;;;;;;5095616;27;20399;-81
2022/02/06 12:22:17;;;;;;;2.45;1.95;;;8.20;99.90;;;;;;5133100;27;20866;-81
2022/02/06 12:24:43;;;;;;;1.55;1.35;;;8.20;99.90;;;;;;5132134;27;20380;-82
2022/02/06 12:27:24;;;;;;;3.27;1.73;;;8.10;99.90;;;;;;5113131;28;20434;-82
2022/02/06 12:29:58;;;;;;;2.75;1.63;;;8.20;99.90;;;;;;5125817;27;20377;-82
2022/02/06 12:32:35;;;;;;;2.63;1.27;;;8.10;99.90;;;;;;5074848;28;20388;-81
2022/02/06 12:37:56;;;;;;;2.20;1.30;;;8.00;99.90;;;;;;5134451;27;20446;-83
2022/02/06 12:40:24;;;;;;;3.03;1.60;;;7.90;99.90;;;;;;5132933;27;20461;-82
2022/02/06 12:42:58;;;;;;;3.03;1.95;;;7.90;99.90;;;;;;5131030;27;20373;-81
2022/02/06 12:45:25;;;;;;;3.53;2.00;;;7.90;99.90;;;;;;5110832;27;20507;-82
2022/02/06 12:47:56;;;;;;;3.10;1.70;;;7.90;99.90;;;;;;5091239;28;20392;-83
2022/02/06 12:50:24;;;;;;;3.08;1.65;;;7.80;99.90;;;;;;5089428;28;20376;-81
2022/02/06 12:52:52;;;;;;;2.45;1.63;;;7.60;99.90;;;;;;5092660;28;20403;-81
2022/02/06 12:55:18;;;;;;;2.15;1.63;;;7.70;99.90;;;;;;5077383;28;20392;-82
2022/02/06 12:57:48;;;;;;;1.70;1.48;;;7.70;99.90;;;;;;5089894;28;20394;-82
2022/02/06 13:00:39;;;;;;;2.38;1.70;;;7.70;99.90;;;;;;5091172;28;20393;-83
2022/02/06 13:03:27;;;;;;;2.33;1.40;;;7.70;99.90;;;;;;5091308;28;20394;-82
2022/02/06 13:05:56;;;;;;;3.22;1.40;;;7.70;99.90;;;;;;5110209;28;20445;-81
2022/02/06 13:08:21;;;;;;;1.90;1.40;;;7.70;99.90;;;;;;5090158;28;20498;-83
2022/02/06 13:10:57;;;;;;;4.40;1.57;;;7.50;99.90;;;;;;5090441;28;20460;-82
2022/02/06 13:13:28;;;;;;;3.13;1.60;;;7.50;99.90;;;;;;5089972;28;20402;-82
2022/02/06 13:16:20;;;;;;;1.85;1.60;;;7.40;99.90;;;;;;5109753;28;20714;-81
2022/02/06 13:22:23;;;;;;;4.38;1.40;;;7.50;99.90;;;;;;5007637;28;20399;-81
2022/02/06 13:33:18;;;;;;;2.08;1.27;;;7.30;99.90;;;;;;5108240;28;20461;-81
2022/02/06 13:35:56;;;;;;;2.53;1.40;;;7.40;99.90;;;;;;5091809;28;20459;-81
2022/02/06 13:38:21;;;;;;;1.50;1.40;;;7.40;99.90;;;;;;5110903;28;20428;-82
2022/02/06 13:40:50;;;;;;;1.20;1.10;;;7.30;99.90;;;;;;5091091;28;20386;-81
2022/02/06 13:43:20;;;;;;;1.60;1.37;;;7.30;99.90;;;;;;5110051;28;20406;-82
2022/02/06 13:45:46;;;;;;;1.65;1.30;;;7.30;99.90;;;;;;5107332;28;20402;-82
2022/02/06 13:48:16;;;;;;;2.30;1.10;;;7.30;99.90;;;;;;5097366;28;20429;-81
2022/02/06 13:50:54;;;;;;;1.77;0.90;;;7.30;99.90;;;;;;5101339;28;20405;-81
2022/02/06 13:53:25;;;;;;;1.90;1.43;;;7.20;99.90;;;;;;5118366;28;20859;-81
2022/02/06 13:55:53;;;;;;;2.50;1.50;;;7.30;99.90;;;;;;5110505;28;20379;-83
2022/02/06 13:58:23;;;;;;;2.70;1.70;;;7.30;99.90;;;;;;5108757;28;20375;-83
2022/02/06 14:00:52;;;;;;;2.17;1.48;;;7.30;99.90;;;;;;5108320;28;20936;-81
2022/02/06 14:03:18;;;;;;;1.45;1.20;;;7.30;99.90;;;;;;5090522;28;20394;-82
2022/02/06 14:05:51;;;;;;;2.33;1.10;;;7.30;99.90;;;;;;5109574;28;20407;-81
2022/02/06 14:08:19;;;;;;;2.33;1.05;;;7.20;99.90;;;;;;5088140;28;20477;-81
2022/02/06 14:11:01;;;;;;;1.65;0.90;;;7.20;99.90;;;;;;5105693;28;20381;-82
2022/02/06 14:13:28;;;;;;;1.00;0.90;;;7.20;99.90;;;;;;5093906;28;20443;-82
2022/02/06 14:16:12;;;;;;;1.40;1.00;;;7.10;99.90;;;;;;5091127;28;20808;-82
2022/02/06 14:19:00;;;;;;;1.60;1.00;;;7.10;99.90;;;;;;5094061;28;20896;-81
2022/02/06 14:21:44;;;;;;;2.67;1.23;;;7.00;99.90;;;;;;5112273;28;20409;-82
2022/02/06 14:24:10;;;;;;;3.15;1.20;;;7.10;99.90;;;;;;5102996;28;20386;-82
2022/02/06 14:26:35;;;;;;;2.30;0.90;;;7.00;99.90;;;;;;5097867;28;20406;-82
2022/02/06 14:29:01;;;;;;;1.10;0.90;;;7.10;99.90;;;;;;5101938;28;20732;-82
2022/02/06 14:31:30;;;;;;;2.80;1.02;;;7.00;99.90;;;;;;5095607;28;20394;-81
2022/02/06 14:34:15;;;;;;;2.05;1.00;;;7.00;99.90;;;;;;5094025;28;20387;-81
2022/02/06 14:36:41;;;;;;;1.30;0.80;;;7.00;99.90;;;;;;5112014;28;20382;-82
2022/02/06 14:39:06;;;;;;;1.42;0.73;;;6.80;99.90;;;;;;5094812;28;20390;-82
2022/02/06 14:41:48;;;;;;;1.05;0.80;;;6.90;99.90;;;;;;5112681;28;20470;-81
2022/02/06 14:44:25;;;;;;;1.30;0.95;;;6.90;99.90;;;;;;5094635;28;20390;-82
2022/02/06 14:46:50;;;;;;;1.92;1.10;;;6.80;99.90;;;;;;5093852;28;20398;-82
2022/02/06 14:49:18;;;;;;;1.40;1.02;;;6.80;99.90;;;;;;5094058;28;20415;-81
2022/02/06 14:51:44;;;;;;;1.60;1.20;;;6.70;99.90;;;;;;5111149;27;20390;-82
2022/02/06 14:54:11;;;;;;;1.10;0.90;;;6.70;99.90;;;;;;5094193;28;20767;-82
2022/02/06 14:56:42;;;;;;;1.27;0.85;;;6.60;99.90;;;;;;5095242;28;20401;-81
2022/02/06 14:59:09;;;;;;;1.58;0.85;;;6.60;99.90;;;;;;5095696;28;20402;-82
2022/02/06 15:01:35;;;;;;;1.10;0.80;;;6.60;99.90;;;;;;5094924;28;20378;-82
2022/02/06 15:04:00;;;;;;;1.13;0.80;;;6.50;99.90;;;;;;5113107;28;20367;-82
2022/02/06 15:06:26;;;;;;;1.23;0.73;;;6.50;99.90;;;;;;5111459;28;20410;-82
2022/02/06 15:08:53;;;;;;;1.58;0.95;;;6.50;99.90;;;;;;5112431;28;20375;-82
2022/02/06 15:11:19;;;;;;;1.42;0.77;;;6.40;99.90;;;;;;5113700;27;20793;-82
2022/02/06 15:13:45;;;;;;;1.13;0.73;;;6.40;99.90;;;;;;5109468;28;20394;-79
2022/02/06 15:16:15;;;;;;;1.40;0.80;;;6.40;99.90;;;;;;5111467;28;20359;-81
2022/02/06 15:18:52;;;;;;;0.65;0.65;;;6.30;99.90;;;;;;5075095;28;20400;-80
2022/02/06 15:21:17;;;;;;;1.75;0.93;;;6.20;99.90;;;;;;5091779;28;20858;-81
2022/02/06 15:23:43;;;;;;;1.15;0.70;;;6.20;99.90;;;;;;5105455;28;20394;-81
2022/02/06 15:26:09;;;;;;;1.30;0.80;;;6.20;99.90;;;;;;5110559;28;20387;-81
2022/02/06 15:28:35;;;;;;;0.80;0.80;;;6.20;99.90;;;;;;5112311;28;20375;-81
2022/02/06 15:31:01;;;;;;;1.67;0.70;;;6.20;99.90;;;;;;5113272;28;20859;-82